EKSG weather

Schelenburg God Heliport
Zealand, Denmark

Public forecast

Using degrees Celsius for public forecast. Weather courtesy of forecast.io.

METAR (pilot weather report)

Closest report is Odense Airport, 11.1 nm (20.6 km) WSW. Retrieved 2019/07/18 13:50 UTC (28 minutes ago):

EKOD 181350Z 17009KT 120V250 9999 FEW046 SCT220 23/08 Q1011

TAF (pilot weather forecast)

Forecast is more than 12 hours old.

Closest forecast is S√łnderborg Airport, 45.2 nm (83.7 km) SW. Retrieved 2016/01/27 09:03 UTC (3 years ago):

TAF TAF EKSB 270856Z 2709/2721 23022KT 5000 -RA BR BKN008 TEMPO 2709/2721 24025G40KT 2000 RADZ BKN004